sensor_id;sensor_type;location;lat;lon;timestamp;P1;durP1;ratioP1;P2;durP2;ratioP2
21848;SDS011;11089;49.852;19.700;2022-07-06T00:02:10;8.07;;;6.53;;
21848;SDS011;11089;49.852;19.700;2022-07-06T00:05:11;7.32;;;6.25;;
21848;SDS011;11089;49.852;19.700;2022-07-06T00:08:12;7.72;;;6.03;;
21848;SDS011;11089;49.852;19.700;2022-07-06T00:11:13;6.97;;;6.28;;
21848;SDS011;11089;49.852;19.700;2022-07-06T00:14:14;7.85;;;6.70;;
21848;SDS011;11089;49.852;19.700;2022-07-06T00:17:15;8.00;;;6.82;;
21848;SDS011;11089;49.852;19.700;2022-07-06T00:20:16;7.07;;;6.38;;
21848;SDS011;11089;49.852;19.700;2022-07-06T00:23:17;7.13;;;6.43;;
21848;SDS011;11089;49.852;19.700;2022-07-06T00:26:19;8.45;;;6.20;;
21848;SDS011;11089;49.852;19.700;2022-07-06T00:29:20;10.35;;;6.88;;
21848;SDS011;11089;49.852;19.700;2022-07-06T00:32:21;8.23;;;6.45;;
21848;SDS011;11089;49.852;19.700;2022-07-06T00:35:22;10.07;;;6.22;;
21848;SDS011;11089;49.852;19.700;2022-07-06T00:38:23;8.25;;;6.35;;
21848;SDS011;11089;49.852;19.700;2022-07-06T00:41:24;7.82;;;6.63;;
21848;SDS011;11089;49.852;19.700;2022-07-06T00:44:25;6.50;;;5.78;;
21848;SDS011;11089;49.852;19.700;2022-07-06T00:47:26;6.88;;;6.18;;
21848;SDS011;11089;49.852;19.700;2022-07-06T00:50:27;7.50;;;5.70;;
21848;SDS011;11089;49.852;19.700;2022-07-06T00:53:28;7.22;;;6.07;;
21848;SDS011;11089;49.852;19.700;2022-07-06T00:56:30;6.75;;;5.97;;
21848;SDS011;11089;49.852;19.700;2022-07-06T00:59:32;9.00;;;6.40;;
21848;SDS011;11089;49.852;19.700;2022-07-06T01:02:33;9.35;;;6.47;;
21848;SDS011;11089;49.852;19.700;2022-07-06T01:05:35;7.97;;;5.97;;
21848;SDS011;11089;49.852;19.700;2022-07-06T01:08:37;7.50;;;5.78;;
21848;SDS011;11089;49.852;19.700;2022-07-06T01:11:39;8.18;;;5.95;;
21848;SDS011;11089;49.852;19.700;2022-07-06T01:14:40;7.90;;;5.60;;
21848;SDS011;11089;49.852;19.700;2022-07-06T01:17:42;6.57;;;5.88;;
21848;SDS011;11089;49.852;19.700;2022-07-06T01:20:43;7.40;;;5.90;;
21848;SDS011;11089;49.852;19.700;2022-07-06T01:23:45;8.93;;;6.10;;
21848;SDS011;11089;49.852;19.700;2022-07-06T01:26:47;7.15;;;6.03;;
21848;SDS011;11089;49.852;19.700;2022-07-06T01:29:48;8.25;;;6.07;;
21848;SDS011;11089;49.852;19.700;2022-07-06T01:32:48;7.50;;;5.57;;
21848;SDS011;11089;49.852;19.700;2022-07-06T01:35:51;6.28;;;5.68;;
21848;SDS011;11089;49.852;19.700;2022-07-06T01:38:53;6.38;;;5.68;;
21848;SDS011;11089;49.852;19.700;2022-07-06T01:41:57;6.55;;;5.95;;
21848;SDS011;11089;49.852;19.700;2022-07-06T01:44:58;7.53;;;6.57;;
21848;SDS011;11089;49.852;19.700;2022-07-06T01:47:59;9.82;;;6.07;;
21848;SDS011;11089;49.852;19.700;2022-07-06T01:51:00;9.48;;;6.68;;
21848;SDS011;11089;49.852;19.700;2022-07-06T01:54:01;8.48;;;6.28;;
21848;SDS011;11089;49.852;19.700;2022-07-06T01:57:02;8.30;;;5.72;;
21848;SDS011;11089;49.852;19.700;2022-07-06T02:00:04;6.93;;;5.95;;
21848;SDS011;11089;49.852;19.700;2022-07-06T02:03:08;8.43;;;7.03;;
21848;SDS011;11089;49.852;19.700;2022-07-06T02:06:09;7.40;;;6.18;;
21848;SDS011;11089;49.852;19.700;2022-07-06T02:09:12;8.73;;;7.07;;
21848;SDS011;11089;49.852;19.700;2022-07-06T02:12:13;7.53;;;6.80;;
21848;SDS011;11089;49.852;19.700;2022-07-06T02:15:14;10.07;;;7.03;;
21848;SDS011;11089;49.852;19.700;2022-07-06T02:18:15;7.20;;;6.50;;
21848;SDS011;11089;49.852;19.700;2022-07-06T02:21:16;10.80;;;6.60;;
21848;SDS011;11089;49.852;19.700;2022-07-06T02:24:17;7.68;;;6.97;;
21848;SDS011;11089;49.852;19.700;2022-07-06T02:27:18;7.18;;;6.45;;
21848;SDS011;11089;49.852;19.700;2022-07-06T02:30:18;7.95;;;6.70;;
21848;SDS011;11089;49.852;19.700;2022-07-06T02:33:19;7.68;;;6.88;;
21848;SDS011;11089;49.852;19.700;2022-07-06T02:36:20;7.07;;;6.28;;
21848;SDS011;11089;49.852;19.700;2022-07-06T02:39:21;9.27;;;7.47;;
21848;SDS011;11089;49.852;19.700;2022-07-06T02:42:22;9.52;;;8.48;;
21848;SDS011;11089;49.852;19.700;2022-07-06T02:45:23;9.98;;;7.95;;
21848;SDS011;11089;49.852;19.700;2022-07-06T02:48:24;12.27;;;9.00;;
21848;SDS011;11089;49.852;19.700;2022-07-06T02:51:25;10.15;;;8.30;;
21848;SDS011;11089;49.852;19.700;2022-07-06T02:54:26;9.57;;;8.00;;
21848;SDS011;11089;49.852;19.700;2022-07-06T02:57:27;10.52;;;9.15;;
21848;SDS011;11089;49.852;19.700;2022-07-06T03:00:28;12.15;;;9.65;;
21848;SDS011;11089;49.852;19.700;2022-07-06T03:03:29;13.65;;;10.68;;
21848;SDS011;11089;49.852;19.700;2022-07-06T03:06:30;15.73;;;12.27;;
21848;SDS011;11089;49.852;19.700;2022-07-06T03:09:31;17.10;;;12.95;;
21848;SDS011;11089;49.852;19.700;2022-07-06T03:12:32;20.10;;;12.90;;
21848;SDS011;11089;49.852;19.700;2022-07-06T03:15:33;17.17;;;12.90;;
21848;SDS011;11089;49.852;19.700;2022-07-06T03:18:33;19.35;;;12.60;;
21848;SDS011;11089;49.852;19.700;2022-07-06T03:21:34;17.58;;;13.35;;
21848;SDS011;11089;49.852;19.700;2022-07-06T03:24:35;18.15;;;12.55;;
21848;SDS011;11089;49.852;19.700;2022-07-06T03:27:36;18.48;;;13.57;;
21848;SDS011;11089;49.852;19.700;2022-07-06T03:30:37;22.20;;;14.75;;
21848;SDS011;11089;49.852;19.700;2022-07-06T03:33:38;22.00;;;14.98;;
21848;SDS011;11089;49.852;19.700;2022-07-06T03:36:39;25.35;;;16.48;;
21848;SDS011;11089;49.852;19.700;2022-07-06T03:39:40;25.02;;;15.95;;
21848;SDS011;11089;49.852;19.700;2022-07-06T03:42:41;27.55;;;17.73;;
21848;SDS011;11089;49.852;19.700;2022-07-06T03:45:42;24.77;;;16.50;;
21848;SDS011;11089;49.852;19.700;2022-07-06T03:48:43;26.42;;;16.60;;
21848;SDS011;11089;49.852;19.700;2022-07-06T03:51:44;23.33;;;16.83;;
21848;SDS011;11089;49.852;19.700;2022-07-06T03:54:45;26.42;;;17.13;;
21848;SDS011;11089;49.852;19.700;2022-07-06T03:57:46;30.52;;;18.98;;
21848;SDS011;11089;49.852;19.700;2022-07-06T04:00:47;27.13;;;17.63;;
21848;SDS011;11089;49.852;19.700;2022-07-06T04:03:48;27.13;;;17.95;;
21848;SDS011;11089;49.852;19.700;2022-07-06T04:06:49;28.35;;;17.10;;
21848;SDS011;11089;49.852;19.700;2022-07-06T04:09:50;25.15;;;16.98;;
21848;SDS011;11089;49.852;19.700;2022-07-06T04:12:51;25.35;;;15.98;;
21848;SDS011;11089;49.852;19.700;2022-07-06T04:15:51;24.52;;;15.85;;
21848;SDS011;11089;49.852;19.700;2022-07-06T04:18:52;26.15;;;17.15;;
21848;SDS011;11089;49.852;19.700;2022-07-06T04:21:53;25.40;;;15.57;;
21848;SDS011;11089;49.852;19.700;2022-07-06T04:24:54;24.80;;;15.75;;
21848;SDS011;11089;49.852;19.700;2022-07-06T04:27:55;23.25;;;15.15;;
21848;SDS011;11089;49.852;19.700;2022-07-06T04:30:56;23.10;;;15.80;;
21848;SDS011;11089;49.852;19.700;2022-07-06T04:33:57;21.02;;;14.52;;
21848;SDS011;11089;49.852;19.700;2022-07-06T04:36:58;21.35;;;14.63;;
21848;SDS011;11089;49.852;19.700;2022-07-06T04:39:59;23.52;;;14.80;;
21848;SDS011;11089;49.852;19.700;2022-07-06T04:43:00;23.95;;;14.93;;
21848;SDS011;11089;49.852;19.700;2022-07-06T04:46:01;21.65;;;13.73;;
21848;SDS011;11089;49.852;19.700;2022-07-06T04:49:02;19.92;;;14.07;;
21848;SDS011;11089;49.852;19.700;2022-07-06T04:52:03;20.75;;;13.30;;
21848;SDS011;11089;49.852;19.700;2022-07-06T04:55:04;20.80;;;14.85;;
21848;SDS011;11089;49.852;19.700;2022-07-06T04:58:06;22.58;;;13.60;;
21848;SDS011;11089;49.852;19.700;2022-07-06T05:01:07;22.40;;;14.63;;
21848;SDS011;11089;49.852;19.700;2022-07-06T05:04:08;20.35;;;14.38;;
21848;SDS011;11089;49.852;19.700;2022-07-06T05:07:09;20.00;;;13.80;;
21848;SDS011;11089;49.852;19.700;2022-07-06T05:10:11;20.67;;;13.27;;
21848;SDS011;11089;49.852;19.700;2022-07-06T05:13:12;20.17;;;14.00;;
21848;SDS011;11089;49.852;19.700;2022-07-06T05:16:14;18.98;;;13.30;;
21848;SDS011;11089;49.852;19.700;2022-07-06T05:19:14;15.77;;;11.98;;
21848;SDS011;11089;49.852;19.700;2022-07-06T05:22:15;14.98;;;11.25;;
21848;SDS011;11089;49.852;19.700;2022-07-06T05:25:16;17.30;;;13.02;;
21848;SDS011;11089;49.852;19.700;2022-07-06T05:28:17;16.65;;;11.70;;
21848;SDS011;11089;49.852;19.700;2022-07-06T05:31:18;19.90;;;12.00;;
21848;SDS011;11089;49.852;19.700;2022-07-06T05:34:19;15.77;;;10.65;;
21848;SDS011;11089;49.852;19.700;2022-07-06T05:37:20;14.32;;;10.73;;
21848;SDS011;11089;49.852;19.700;2022-07-06T05:40:21;12.25;;;9.93;;
21848;SDS011;11089;49.852;19.700;2022-07-06T05:43:22;11.77;;;9.50;;
21848;SDS011;11089;49.852;19.700;2022-07-06T05:46:23;14.75;;;10.05;;
21848;SDS011;11089;49.852;19.700;2022-07-06T05:49:24;14.02;;;9.35;;
21848;SDS011;11089;49.852;19.700;2022-07-06T05:52:41;11.63;;;9.50;;
21848;SDS011;11089;49.852;19.700;2022-07-06T05:55:43;11.35;;;8.50;;
21848;SDS011;11089;49.852;19.700;2022-07-06T05:58:44;11.73;;;9.43;;
21848;SDS011;11089;49.852;19.700;2022-07-06T06:01:45;13.38;;;10.30;;
21848;SDS011;11089;49.852;19.700;2022-07-06T06:04:46;14.00;;;10.35;;
21848;SDS011;11089;49.852;19.700;2022-07-06T06:07:47;14.43;;;9.63;;
21848;SDS011;11089;49.852;19.700;2022-07-06T06:10:51;14.82;;;11.02;;
21848;SDS011;11089;49.852;19.700;2022-07-06T06:13:52;13.48;;;9.98;;
21848;SDS011;11089;49.852;19.700;2022-07-06T06:16:53;13.88;;;10.15;;
21848;SDS011;11089;49.852;19.700;2022-07-06T06:19:54;12.25;;;8.75;;
21848;SDS011;11089;49.852;19.700;2022-07-06T06:22:57;14.75;;;9.15;;
21848;SDS011;11089;49.852;19.700;2022-07-06T06:25:58;10.00;;;7.40;;
21848;SDS011;11089;49.852;19.700;2022-07-06T06:28:59;14.38;;;8.20;;
21848;SDS011;11089;49.852;19.700;2022-07-06T06:32:00;11.73;;;7.50;;
21848;SDS011;11089;49.852;19.700;2022-07-06T06:35:01;9.43;;;8.13;;
21848;SDS011;11089;49.852;19.700;2022-07-06T06:38:03;11.27;;;7.75;;
21848;SDS011;11089;49.852;19.700;2022-07-06T06:41:04;10.38;;;7.72;;
21848;SDS011;11089;49.852;19.700;2022-07-06T06:44:05;11.32;;;8.35;;
21848;SDS011;11089;49.852;19.700;2022-07-06T06:47:06;9.88;;;7.50;;
21848;SDS011;11089;49.852;19.700;2022-07-06T06:50:07;11.60;;;8.55;;
21848;SDS011;11089;49.852;19.700;2022-07-06T06:53:08;10.15;;;7.22;;
21848;SDS011;11089;49.852;19.700;2022-07-06T06:56:09;10.10;;;7.72;;
21848;SDS011;11089;49.852;19.700;2022-07-06T06:59:10;8.05;;;6.57;;
21848;SDS011;11089;49.852;19.700;2022-07-06T07:02:11;9.50;;;7.10;;
21848;SDS011;11089;49.852;19.700;2022-07-06T07:05:12;7.68;;;6.63;;
21848;SDS011;11089;49.852;19.700;2022-07-06T07:08:13;6.45;;;5.85;;
21848;SDS011;11089;49.852;19.700;2022-07-06T07:11:14;8.13;;;6.43;;
21848;SDS011;11089;49.852;19.700;2022-07-06T07:14:15;9.45;;;5.90;;
21848;SDS011;11089;49.852;19.700;2022-07-06T07:17:16;5.60;;;5.00;;
21848;SDS011;11089;49.852;19.700;2022-07-06T07:20:17;6.53;;;5.32;;
21848;SDS011;11089;49.852;19.700;2022-07-06T07:23:18;9.45;;;7.60;;
21848;SDS011;11089;49.852;19.700;2022-07-06T07:26:19;10.50;;;7.32;;
21848;SDS011;11089;49.852;19.700;2022-07-06T07:29:20;11.00;;;7.70;;
21848;SDS011;11089;49.852;19.700;2022-07-06T07:32:21;10.52;;;7.20;;
21848;SDS011;11089;49.852;19.700;2022-07-06T07:35:22;9.68;;;7.45;;
21848;SDS011;11089;49.852;19.700;2022-07-06T07:38:23;10.55;;;8.00;;
21848;SDS011;11089;49.852;19.700;2022-07-06T07:41:24;10.65;;;8.65;;
21848;SDS011;11089;49.852;19.700;2022-07-06T07:44:25;13.45;;;8.40;;
21848;SDS011;11089;49.852;19.700;2022-07-06T07:47:27;12.02;;;10.05;;
21848;SDS011;11089;49.852;19.700;2022-07-06T07:50:28;11.57;;;8.65;;
21848;SDS011;11089;49.852;19.700;2022-07-06T07:53:29;11.45;;;8.98;;
21848;SDS011;11089;49.852;19.700;2022-07-06T07:56:30;10.30;;;9.02;;
21848;SDS011;11089;49.852;19.700;2022-07-06T07:59:31;13.63;;;8.38;;
21848;SDS011;11089;49.852;19.700;2022-07-06T08:02:32;11.60;;;8.55;;
21848;SDS011;11089;49.852;19.700;2022-07-06T08:05:33;9.65;;;7.50;;
21848;SDS011;11089;49.852;19.700;2022-07-06T08:08:34;8.20;;;7.40;;
21848;SDS011;11089;49.852;19.700;2022-07-06T08:11:35;10.20;;;7.63;;
21848;SDS011;11089;49.852;19.700;2022-07-06T08:14:36;9.95;;;7.75;;
21848;SDS011;11089;49.852;19.700;2022-07-06T08:17:37;11.18;;;7.80;;
21848;SDS011;11089;49.852;19.700;2022-07-06T08:20:39;10.27;;;7.03;;
21848;SDS011;11089;49.852;19.700;2022-07-06T08:23:40;9.57;;;7.35;;
21848;SDS011;11089;49.852;19.700;2022-07-06T08:26:41;14.65;;;8.73;;
21848;SDS011;11089;49.852;19.700;2022-07-06T08:29:42;11.60;;;9.00;;
21848;SDS011;11089;49.852;19.700;2022-07-06T08:32:43;11.77;;;9.07;;
21848;SDS011;11089;49.852;19.700;2022-07-06T08:35:44;11.43;;;9.23;;
21848;SDS011;11089;49.852;19.700;2022-07-06T08:38:45;10.90;;;8.30;;
21848;SDS011;11089;49.852;19.700;2022-07-06T08:41:47;12.30;;;8.98;;
21848;SDS011;11089;49.852;19.700;2022-07-06T08:44:49;12.10;;;9.43;;
21848;SDS011;11089;49.852;19.700;2022-07-06T08:47:54;17.83;;;12.98;;
21848;SDS011;11089;49.852;19.700;2022-07-06T08:50:55;20.75;;;14.50;;
21848;SDS011;11089;49.852;19.700;2022-07-06T08:53:56;22.60;;;14.55;;
21848;SDS011;11089;49.852;19.700;2022-07-06T08:56:58;22.40;;;15.65;;
21848;SDS011;11089;49.852;19.700;2022-07-06T08:59:59;22.65;;;16.10;;
21848;SDS011;11089;49.852;19.700;2022-07-06T09:03:00;21.58;;;14.70;;
21848;SDS011;11089;49.852;19.700;2022-07-06T09:06:02;19.77;;;14.65;;
21848;SDS011;11089;49.852;19.700;2022-07-06T09:09:05;19.58;;;13.80;;
21848;SDS011;11089;49.852;19.700;2022-07-06T09:12:10;20.58;;;15.30;;
21848;SDS011;11089;49.852;19.700;2022-07-06T09:15:13;21.95;;;15.52;;
21848;SDS011;11089;49.852;19.700;2022-07-06T09:18:15;24.55;;;16.17;;
21848;SDS011;11089;49.852;19.700;2022-07-06T09:21:25;19.45;;;14.48;;
21848;SDS011;11089;49.852;19.700;2022-07-06T09:24:27;20.58;;;13.00;;
21848;SDS011;11089;49.852;19.700;2022-07-06T09:27:28;15.63;;;12.10;;
21848;SDS011;11089;49.852;19.700;2022-07-06T09:30:29;11.65;;;10.38;;
21848;SDS011;11089;49.852;19.700;2022-07-06T09:33:30;13.23;;;11.80;;
21848;SDS011;11089;49.852;19.700;2022-07-06T09:36:42;16.35;;;11.57;;
21848;SDS011;11089;49.852;19.700;2022-07-06T09:39:47;13.45;;;10.70;;
21848;SDS011;11089;49.852;19.700;2022-07-06T09:42:48;13.25;;;10.60;;
21848;SDS011;11089;49.852;19.700;2022-07-06T09:45:50;12.25;;;9.57;;
21848;SDS011;11089;49.852;19.700;2022-07-06T09:48:52;12.32;;;8.85;;
21848;SDS011;11089;49.852;19.700;2022-07-06T09:51:56;12.23;;;9.55;;
21848;SDS011;11089;49.852;19.700;2022-07-06T09:55:05;9.88;;;8.88;;
21848;SDS011;11089;49.852;19.700;2022-07-06T09:58:15;9.15;;;8.18;;
21848;SDS011;11089;49.852;19.700;2022-07-06T10:01:26;8.68;;;7.78;;
21848;SDS011;11089;49.852;19.700;2022-07-06T10:04:29;9.65;;;8.75;;
21848;SDS011;11089;49.852;19.700;2022-07-06T10:07:31;11.15;;;8.27;;
21848;SDS011;11089;49.852;19.700;2022-07-06T10:10:32;11.95;;;9.18;;
21848;SDS011;11089;49.852;19.700;2022-07-06T10:13:34;8.68;;;7.78;;
21848;SDS011;11089;49.852;19.700;2022-07-06T10:16:37;8.38;;;7.57;;
21848;SDS011;11089;49.852;19.700;2022-07-06T10:19:39;11.68;;;8.55;;
21848;SDS011;11089;49.852;19.700;2022-07-06T10:22:41;10.35;;;8.00;;
21848;SDS011;11089;49.852;19.700;2022-07-06T10:25:42;9.60;;;6.90;;
21848;SDS011;11089;49.852;19.700;2022-07-06T10:28:44;8.43;;;7.63;;
21848;SDS011;11089;49.852;19.700;2022-07-06T10:31:48;7.60;;;6.80;;
21848;SDS011;11089;49.852;19.700;2022-07-06T10:34:51;7.90;;;7.10;;
21848;SDS011;11089;49.852;19.700;2022-07-06T10:41:07;8.10;;;7.40;;
21848;SDS011;11089;49.852;19.700;2022-07-06T10:44:16;10.95;;;8.40;;
21848;SDS011;11089;49.852;19.700;2022-07-06T10:47:18;9.05;;;7.32;;
21848;SDS011;11089;49.852;19.700;2022-07-06T10:50:33;9.35;;;7.20;;
21848;SDS011;11089;49.852;19.700;2022-07-06T10:53:38;7.68;;;6.90;;
21848;SDS011;11089;49.852;19.700;2022-07-06T10:56:44;6.50;;;5.80;;
21848;SDS011;11089;49.852;19.700;2022-07-06T11:06:35;6.43;;;5.72;;
21848;SDS011;11089;49.852;19.700;2022-07-06T11:09:37;8.77;;;5.75;;
21848;SDS011;11089;49.852;19.700;2022-07-06T11:12:44;6.65;;;4.93;;
21848;SDS011;11089;49.852;19.700;2022-07-06T11:15:48;5.57;;;4.32;;
21848;SDS011;11089;49.852;19.700;2022-07-06T11:18:58;5.72;;;3.95;;
21848;SDS011;11089;49.852;19.700;2022-07-06T11:22:08;4.53;;;3.60;;
21848;SDS011;11089;49.852;19.700;2022-07-06T11:25:10;5.30;;;3.90;;
21848;SDS011;11089;49.852;19.700;2022-07-06T11:28:11;4.22;;;3.60;;
21848;SDS011;11089;49.852;19.700;2022-07-06T11:31:14;5.38;;;3.50;;
21848;SDS011;11089;49.852;19.700;2022-07-06T11:34:19;4.05;;;3.15;;
21848;SDS011;11089;49.852;19.700;2022-07-06T11:37:25;3.80;;;3.40;;
21848;SDS011;11089;49.852;19.700;2022-07-06T11:40:26;3.42;;;3.13;;
21848;SDS011;11089;49.852;19.700;2022-07-06T11:43:27;4.15;;;3.08;;
21848;SDS011;11089;49.852;19.700;2022-07-06T11:46:32;6.25;;;3.55;;
21848;SDS011;11089;49.852;19.700;2022-07-06T11:49:35;5.57;;;3.17;;
21848;SDS011;11089;49.852;19.700;2022-07-06T11:52:37;3.13;;;2.78;;
21848;SDS011;11089;49.852;19.700;2022-07-06T11:55:38;7.05;;;3.40;;
21848;SDS011;11089;49.852;19.700;2022-07-06T11:58:39;5.13;;;3.03;;
21848;SDS011;11089;49.852;19.700;2022-07-06T12:01:42;3.50;;;3.20;;
21848;SDS011;11089;49.852;19.700;2022-07-06T12:04:45;4.25;;;3.40;;
21848;SDS011;11089;49.852;19.700;2022-07-06T12:07:46;3.85;;;3.55;;
21848;SDS011;11089;49.852;19.700;2022-07-06T12:10:47;3.65;;;3.30;;
21848;SDS011;11089;49.852;19.700;2022-07-06T12:13:49;5.38;;;3.10;;
21848;SDS011;11089;49.852;19.700;2022-07-06T12:16:51;7.47;;;3.88;;
21848;SDS011;11089;49.852;19.700;2022-07-06T12:19:53;4.05;;;3.40;;
21848;SDS011;11089;49.852;19.700;2022-07-06T12:23:01;5.47;;;3.55;;
21848;SDS011;11089;49.852;19.700;2022-07-06T12:26:06;4.13;;;3.55;;
21848;SDS011;11089;49.852;19.700;2022-07-06T12:29:08;3.45;;;3.15;;
21848;SDS011;11089;49.852;19.700;2022-07-06T12:32:20;3.92;;;3.03;;
21848;SDS011;11089;49.852;19.700;2022-07-06T12:35:26;2.92;;;2.65;;
21848;SDS011;11089;49.852;19.700;2022-07-06T12:38:28;4.05;;;2.70;;
21848;SDS011;11089;49.852;19.700;2022-07-06T12:41:31;3.42;;;2.75;;
21848;SDS011;11089;49.852;19.700;2022-07-06T12:44:35;2.92;;;2.20;;
21848;SDS011;11089;49.852;19.700;2022-07-06T12:50:59;2.63;;;2.42;;
21848;SDS011;11089;49.852;19.700;2022-07-06T12:57:16;3.05;;;2.75;;
21848;SDS011;11089;49.852;19.700;2022-07-06T13:00:23;3.15;;;2.20;;
21848;SDS011;11089;49.852;19.700;2022-07-06T13:03:24;2.30;;;2.08;;
21848;SDS011;11089;49.852;19.700;2022-07-06T13:06:26;4.07;;;2.35;;
21848;SDS011;11089;49.852;19.700;2022-07-06T13:09:32;3.33;;;1.88;;
21848;SDS011;11089;49.852;19.700;2022-07-06T13:12:33;4.53;;;2.05;;
21848;SDS011;11089;49.852;19.700;2022-07-06T13:15:35;2.70;;;2.30;;
21848;SDS011;11089;49.852;19.700;2022-07-06T13:18:36;3.75;;;2.20;;
21848;SDS011;11089;49.852;19.700;2022-07-06T13:21:37;4.75;;;2.10;;
21848;SDS011;11089;49.852;19.700;2022-07-06T13:24:38;4.57;;;2.40;;
21848;SDS011;11089;49.852;19.700;2022-07-06T13:27:40;4.50;;;2.35;;
21848;SDS011;11089;49.852;19.700;2022-07-06T13:30:41;5.80;;;2.15;;
21848;SDS011;11089;49.852;19.700;2022-07-06T13:33:42;3.17;;;2.58;;
21848;SDS011;11089;49.852;19.700;2022-07-06T13:36:43;4.07;;;2.53;;
21848;SDS011;11089;49.852;19.700;2022-07-06T13:39:44;2.50;;;2.30;;
21848;SDS011;11089;49.852;19.700;2022-07-06T13:42:45;2.55;;;2.30;;
21848;SDS011;11089;49.852;19.700;2022-07-06T13:45:46;2.67;;;2.47;;
21848;SDS011;11089;49.852;19.700;2022-07-06T13:48:47;2.75;;;2.50;;
21848;SDS011;11089;49.852;19.700;2022-07-06T13:51:48;2.67;;;2.35;;
21848;SDS011;11089;49.852;19.700;2022-07-06T13:54:49;2.35;;;2.15;;
21848;SDS011;11089;49.852;19.700;2022-07-06T13:57:50;4.60;;;2.70;;
21848;SDS011;11089;49.852;19.700;2022-07-06T14:00:51;4.05;;;2.42;;
21848;SDS011;11089;49.852;19.700;2022-07-06T14:03:52;3.75;;;2.30;;
21848;SDS011;11089;49.852;19.700;2022-07-06T14:06:53;3.67;;;2.58;;
21848;SDS011;11089;49.852;19.700;2022-07-06T14:09:54;3.10;;;2.30;;
21848;SDS011;11089;49.852;19.700;2022-07-06T14:12:55;4.18;;;2.28;;
21848;SDS011;11089;49.852;19.700;2022-07-06T14:15:57;2.78;;;2.28;;
21848;SDS011;11089;49.852;19.700;2022-07-06T14:18:58;3.85;;;2.35;;
21848;SDS011;11089;49.852;19.700;2022-07-06T14:21:59;3.67;;;2.38;;
21848;SDS011;11089;49.852;19.700;2022-07-06T14:25:00;2.80;;;2.60;;
21848;SDS011;11089;49.852;19.700;2022-07-06T14:28:01;2.30;;;2.10;;
21848;SDS011;11089;49.852;19.700;2022-07-06T14:31:02;3.17;;;2.55;;
21848;SDS011;11089;49.852;19.700;2022-07-06T14:34:03;3.45;;;2.50;;
21848;SDS011;11089;49.852;19.700;2022-07-06T14:37:04;2.83;;;2.60;;
21848;SDS011;11089;49.852;19.700;2022-07-06T14:40:05;4.40;;;2.90;;
21848;SDS011;11089;49.852;19.700;2022-07-06T14:43:07;2.40;;;2.20;;
21848;SDS011;11089;49.852;19.700;2022-07-06T14:46:08;2.80;;;2.47;;
21848;SDS011;11089;49.852;19.700;2022-07-06T14:49:09;2.80;;;2.45;;
21848;SDS011;11089;49.852;19.700;2022-07-06T14:52:10;3.50;;;2.40;;
21848;SDS011;11089;49.852;19.700;2022-07-06T14:55:11;2.70;;;2.50;;
21848;SDS011;11089;49.852;19.700;2022-07-06T14:58:13;2.85;;;2.38;;
21848;SDS011;11089;49.852;19.700;2022-07-06T15:01:16;3.92;;;2.38;;
21848;SDS011;11089;49.852;19.700;2022-07-06T15:04:17;2.53;;;2.25;;
21848;SDS011;11089;49.852;19.700;2022-07-06T15:07:18;4.85;;;2.70;;
21848;SDS011;11089;49.852;19.700;2022-07-06T15:10:19;4.05;;;2.47;;
21848;SDS011;11089;49.852;19.700;2022-07-06T15:13:19;2.65;;;2.40;;
21848;SDS011;11089;49.852;19.700;2022-07-06T15:16:20;5.15;;;2.28;;
21848;SDS011;11089;49.852;19.700;2022-07-06T15:19:21;2.50;;;2.30;;
21848;SDS011;11089;49.852;19.700;2022-07-06T15:22:22;2.50;;;2.30;;
21848;SDS011;11089;49.852;19.700;2022-07-06T15:25:23;2.45;;;2.25;;
21848;SDS011;11089;49.852;19.700;2022-07-06T15:28:25;2.92;;;2.38;;
21848;SDS011;11089;49.852;19.700;2022-07-06T15:31:26;2.65;;;2.00;;
21848;SDS011;11089;49.852;19.700;2022-07-06T15:34:27;2.47;;;1.90;;
21848;SDS011;11089;49.852;19.700;2022-07-06T15:37:28;4.82;;;2.40;;
21848;SDS011;11089;49.852;19.700;2022-07-06T15:40:32;2.10;;;1.90;;
21848;SDS011;11089;49.852;19.700;2022-07-06T15:43:40;3.25;;;2.10;;
21848;SDS011;11089;49.852;19.700;2022-07-06T15:46:41;3.08;;;2.28;;
21848;SDS011;11089;49.852;19.700;2022-07-06T15:49:42;2.80;;;2.30;;
21848;SDS011;11089;49.852;19.700;2022-07-06T15:52:43;2.40;;;2.05;;
21848;SDS011;11089;49.852;19.700;2022-07-06T15:55:44;2.33;;;2.13;;
21848;SDS011;11089;49.852;19.700;2022-07-06T15:58:45;3.92;;;2.13;;
21848;SDS011;11089;49.852;19.700;2022-07-06T16:01:47;3.40;;;2.53;;
21848;SDS011;11089;49.852;19.700;2022-07-06T16:04:48;2.60;;;2.40;;
21848;SDS011;11089;49.852;19.700;2022-07-06T16:07:49;3.80;;;2.60;;
21848;SDS011;11089;49.852;19.700;2022-07-06T16:10:50;4.88;;;2.60;;
21848;SDS011;11089;49.852;19.700;2022-07-06T16:13:52;2.55;;;2.35;;
21848;SDS011;11089;49.852;19.700;2022-07-06T16:16:52;6.15;;;2.60;;
21848;SDS011;11089;49.852;19.700;2022-07-06T16:19:53;4.55;;;3.00;;
21848;SDS011;11089;49.852;19.700;2022-07-06T16:22:54;11.70;;;3.20;;
21848;SDS011;11089;49.852;19.700;2022-07-06T16:25:56;4.82;;;2.85;;
21848;SDS011;11089;49.852;19.700;2022-07-06T16:28:57;3.50;;;2.83;;
21848;SDS011;11089;49.852;19.700;2022-07-06T16:32:00;3.95;;;2.85;;
21848;SDS011;11089;49.852;19.700;2022-07-06T16:35:01;6.05;;;3.10;;
21848;SDS011;11089;49.852;19.700;2022-07-06T16:38:03;3.50;;;3.20;;
21848;SDS011;11089;49.852;19.700;2022-07-06T16:41:04;4.40;;;3.00;;
21848;SDS011;11089;49.852;19.700;2022-07-06T16:44:05;3.83;;;2.97;;
21848;SDS011;11089;49.852;19.700;2022-07-06T16:47:06;3.15;;;2.85;;
21848;SDS011;11089;49.852;19.700;2022-07-06T16:50:07;4.43;;;3.08;;
21848;SDS011;11089;49.852;19.700;2022-07-06T16:53:08;4.13;;;3.13;;
21848;SDS011;11089;49.852;19.700;2022-07-06T16:56:09;5.32;;;3.10;;
21848;SDS011;11089;49.852;19.700;2022-07-06T16:59:11;8.85;;;3.53;;
21848;SDS011;11089;49.852;19.700;2022-07-06T17:02:12;4.03;;;3.30;;
21848;SDS011;11089;49.852;19.700;2022-07-06T17:05:14;5.95;;;3.78;;
21848;SDS011;11089;49.852;19.700;2022-07-06T17:08:15;5.75;;;3.60;;
21848;SDS011;11089;49.852;19.700;2022-07-06T17:11:16;6.28;;;4.80;;
21848;SDS011;11089;49.852;19.700;2022-07-06T17:14:17;5.90;;;4.50;;
21848;SDS011;11089;49.852;19.700;2022-07-06T17:17:19;6.28;;;4.60;;
21848;SDS011;11089;49.852;19.700;2022-07-06T17:20:21;9.27;;;3.78;;
21848;SDS011;11089;49.852;19.700;2022-07-06T17:23:21;7.18;;;3.67;;
21848;SDS011;11089;49.852;19.700;2022-07-06T17:26:22;8.20;;;3.97;;
21848;SDS011;11089;49.852;19.700;2022-07-06T17:29:25;6.10;;;3.45;;
21848;SDS011;11089;49.852;19.700;2022-07-06T17:32:26;6.93;;;3.65;;
21848;SDS011;11089;49.852;19.700;2022-07-06T17:35:27;3.65;;;3.13;;
21848;SDS011;11089;49.852;19.700;2022-07-06T17:38:29;5.20;;;3.42;;
21848;SDS011;11089;49.852;19.700;2022-07-06T17:41:31;5.10;;;3.40;;
21848;SDS011;11089;49.852;19.700;2022-07-06T17:44:32;4.05;;;3.50;;
21848;SDS011;11089;49.852;19.700;2022-07-06T17:47:33;3.78;;;2.90;;
21848;SDS011;11089;49.852;19.700;2022-07-06T17:50:34;4.07;;;2.72;;
21848;SDS011;11089;49.852;19.700;2022-07-06T17:53:35;4.15;;;3.03;;
21848;SDS011;11089;49.852;19.700;2022-07-06T17:56:36;4.05;;;2.70;;
21848;SDS011;11089;49.852;19.700;2022-07-06T17:59:38;4.38;;;3.00;;
21848;SDS011;11089;49.852;19.700;2022-07-06T18:02:40;4.10;;;2.70;;
21848;SDS011;11089;49.852;19.700;2022-07-06T18:05:41;3.53;;;3.05;;